sensor_id;sensor_type;location;lat;lon;timestamp;pressure;altitude;pressure_sealevel;temperature;humidity
13690;BME280;6917;52.194;9.894;2023-04-24T00:00:04;98982.25;;;11.74;98.74
13690;BME280;6917;52.194;9.894;2023-04-24T00:02:31;98973.06;;;11.67;98.89
13690;BME280;6917;52.194;9.894;2023-04-24T00:04:58;98969.97;;;11.68;99.59
13690;BME280;6917;52.194;9.894;2023-04-24T00:07:27;98973.84;;;11.67;99.63
13690;BME280;6917;52.194;9.894;2023-04-24T00:09:52;98970.31;;;11.67;99.05
13690;BME280;6917;52.194;9.894;2023-04-24T00:12:18;98962.03;;;11.63;99.54
13690;BME280;6917;52.194;9.894;2023-04-24T00:14:43;98967.16;;;11.65;99.56
13690;BME280;6917;52.194;9.894;2023-04-24T00:17:08;98954.97;;;11.62;99.65
13690;BME280;6917;52.194;9.894;2023-04-24T00:19:34;98957.28;;;11.60;99.93
13690;BME280;6917;52.194;9.894;2023-04-24T00:21:59;98951.63;;;11.53;100.00
13690;BME280;6917;52.194;9.894;2023-04-24T00:24:24;98956.38;;;11.56;100.00
13690;BME280;6917;52.194;9.894;2023-04-24T00:26:50;98952.97;;;11.59;100.00
13690;BME280;6917;52.194;9.894;2023-04-24T00:29:15;98954.78;;;11.55;100.00
13690;BME280;6917;52.194;9.894;2023-04-24T00:31:40;98958.31;;;11.55;100.00
13690;BME280;6917;52.194;9.894;2023-04-24T00:34:06;98966.63;;;11.59;100.00
13690;BME280;6917;52.194;9.894;2023-04-24T00:36:31;98967.44;;;11.59;99.99
13690;BME280;6917;52.194;9.894;2023-04-24T00:38:57;98964.06;;;11.50;100.00
13690;BME280;6917;52.194;9.894;2023-04-24T00:41:24;98965.56;;;11.48;100.00
13690;BME280;6917;52.194;9.894;2023-04-24T00:43:51;98974.13;;;11.46;100.00
13690;BME280;6917;52.194;9.894;2023-04-24T00:46:16;98973.44;;;11.49;100.00
13690;BME280;6917;52.194;9.894;2023-04-24T00:48:42;98977.66;;;11.47;100.00
13690;BME280;6917;52.194;9.894;2023-04-24T00:51:08;98983.06;;;11.43;100.00
13690;BME280;6917;52.194;9.894;2023-04-24T00:53:33;98977.91;;;11.42;100.00
13690;BME280;6917;52.194;9.894;2023-04-24T00:55:59;98970.84;;;11.41;100.00
13690;BME280;6917;52.194;9.894;2023-04-24T00:58:25;98977.38;;;11.36;100.00
13690;BME280;6917;52.194;9.894;2023-04-24T01:00:52;98972.34;;;11.38;100.00
13690;BME280;6917;52.194;9.894;2023-04-24T01:03:20;98964.88;;;11.35;100.00
13690;BME280;6917;52.194;9.894;2023-04-24T01:05:46;98956.16;;;11.29;100.00
13690;BME280;6917;52.194;9.894;2023-04-24T01:08:13;98952.63;;;11.29;100.00
13690;BME280;6917;52.194;9.894;2023-04-24T01:10:40;98947.94;;;11.29;100.00
13690;BME280;6917;52.194;9.894;2023-04-24T01:13:07;98944.50;;;11.32;100.00
13690;BME280;6917;52.194;9.894;2023-04-24T01:15:33;98944.06;;;11.30;100.00
13690;BME280;6917;52.194;9.894;2023-04-24T01:17:59;98934.16;;;11.26;100.00
13690;BME280;6917;52.194;9.894;2023-04-24T01:20:24;98949.34;;;11.23;100.00
13690;BME280;6917;52.194;9.894;2023-04-24T01:22:51;98954.44;;;11.25;100.00
13690;BME280;6917;52.194;9.894;2023-04-24T01:25:16;98954.81;;;11.23;100.00
13690;BME280;6917;52.194;9.894;2023-04-24T01:27:42;98948.91;;;11.21;100.00
13690;BME280;6917;52.194;9.894;2023-04-24T01:30:07;98958.97;;;11.17;100.00
13690;BME280;6917;52.194;9.894;2023-04-24T01:32:33;98959.03;;;11.21;100.00
13690;BME280;6917;52.194;9.894;2023-04-24T01:34:58;98959.84;;;11.21;100.00
13690;BME280;6917;52.194;9.894;2023-04-24T01:37:24;98960.28;;;11.23;100.00
13690;BME280;6917;52.194;9.894;2023-04-24T01:39:49;98954.44;;;11.25;100.00
13690;BME280;6917;52.194;9.894;2023-04-24T01:42:16;98948.28;;;11.28;100.00
13690;BME280;6917;52.194;9.894;2023-04-24T01:44:41;98955.50;;;11.20;100.00
13690;BME280;6917;52.194;9.894;2023-04-24T01:47:07;98953.06;;;11.15;100.00
13690;BME280;6917;52.194;9.894;2023-04-24T01:49:32;98954.63;;;11.16;100.00
13690;BME280;6917;52.194;9.894;2023-04-24T01:51:58;98951.47;;;11.14;100.00
13690;BME280;6917;52.194;9.894;2023-04-24T01:54:23;98955.78;;;11.15;100.00
13690;BME280;6917;52.194;9.894;2023-04-24T01:56:48;98951.25;;;11.07;100.00
13690;BME280;6917;52.194;9.894;2023-04-24T01:59:16;98944.91;;;11.03;100.00
13690;BME280;6917;52.194;9.894;2023-04-24T02:01:42;98938.53;;;10.99;100.00
13690;BME280;6917;52.194;9.894;2023-04-24T02:04:07;98936.78;;;10.91;100.00
13690;BME280;6917;52.194;9.894;2023-04-24T02:06:33;98938.19;;;10.85;99.32
13690;BME280;6917;52.194;9.894;2023-04-24T02:08:58;98933.63;;;10.89;98.74
13690;BME280;6917;52.194;9.894;2023-04-24T02:11:24;98934.31;;;10.86;97.80
13690;BME280;6917;52.194;9.894;2023-04-24T02:13:49;98936.00;;;10.90;97.14
13690;BME280;6917;52.194;9.894;2023-04-24T02:16:16;98933.97;;;10.87;96.96
13690;BME280;6917;52.194;9.894;2023-04-24T02:18:42;98940.66;;;10.90;96.37
13690;BME280;6917;52.194;9.894;2023-04-24T02:21:07;98934.31;;;10.86;95.93
13690;BME280;6917;52.194;9.894;2023-04-24T02:23:33;98926.63;;;10.76;96.44
13690;BME280;6917;52.194;9.894;2023-04-24T02:26:00;98940.72;;;10.78;96.92
13690;BME280;6917;52.194;9.894;2023-04-24T02:28:26;98946.03;;;10.70;97.32
13690;BME280;6917;52.194;9.894;2023-04-24T02:30:51;98936.81;;;10.63;97.57
13690;BME280;6917;52.194;9.894;2023-04-24T02:33:16;98943.28;;;10.70;98.03
13690;BME280;6917;52.194;9.894;2023-04-24T02:35:45;98939.72;;;10.70;98.12
13690;BME280;6917;52.194;9.894;2023-04-24T02:38:10;98942.28;;;10.63;99.13
13690;BME280;6917;52.194;9.894;2023-04-24T02:40:35;98949.34;;;10.64;99.80
13690;BME280;6917;52.194;9.894;2023-04-24T02:43:03;98944.66;;;10.64;99.93
13690;BME280;6917;52.194;9.894;2023-04-24T02:45:29;98943.44;;;10.62;100.00
13690;BME280;6917;52.194;9.894;2023-04-24T02:47:54;98928.78;;;10.54;100.00
13690;BME280;6917;52.194;9.894;2023-04-24T02:50:20;98933.34;;;10.50;100.00
13690;BME280;6917;52.194;9.894;2023-04-24T02:52:45;98930.44;;;10.43;100.00
13690;BME280;6917;52.194;9.894;2023-04-24T02:55:11;98926.34;;;10.37;99.70
13690;BME280;6917;52.194;9.894;2023-04-24T02:57:36;98925.56;;;10.36;99.46
13690;BME280;6917;52.194;9.894;2023-04-24T03:00:01;98932.50;;;10.34;99.16
13690;BME280;6917;52.194;9.894;2023-04-24T03:02:28;98920.34;;;10.31;98.23
13690;BME280;6917;52.194;9.894;2023-04-24T03:04:53;98936.28;;;10.29;98.37
13690;BME280;6917;52.194;9.894;2023-04-24T03:07:18;98930.91;;;10.33;98.03
13690;BME280;6917;52.194;9.894;2023-04-24T03:09:46;98925.25;;;10.26;98.42
13690;BME280;6917;52.194;9.894;2023-04-24T03:12:11;98923.09;;;10.19;98.15
13690;BME280;6917;52.194;9.894;2023-04-24T03:14:36;98916.81;;;10.19;97.94
13690;BME280;6917;52.194;9.894;2023-04-24T03:17:02;98918.41;;;10.20;97.15
13690;BME280;6917;52.194;9.894;2023-04-24T03:19:27;98915.16;;;10.14;97.50
13690;BME280;6917;52.194;9.894;2023-04-24T03:21:55;98917.53;;;10.16;97.09
13690;BME280;6917;52.194;9.894;2023-04-24T03:24:21;98913.88;;;10.11;96.52
13690;BME280;6917;52.194;9.894;2023-04-24T03:26:46;98918.09;;;10.09;96.35
13690;BME280;6917;52.194;9.894;2023-04-24T03:29:11;98907.09;;;10.05;96.05
13690;BME280;6917;52.194;9.894;2023-04-24T03:31:37;98916.75;;;10.03;96.00
13690;BME280;6917;52.194;9.894;2023-04-24T03:34:02;98916.97;;;9.98;95.90
13690;BME280;6917;52.194;9.894;2023-04-24T03:36:27;98915.75;;;9.95;95.80
13690;BME280;6917;52.194;9.894;2023-04-24T03:38:55;98916.88;;;9.94;95.79
13690;BME280;6917;52.194;9.894;2023-04-24T03:41:21;98912.91;;;9.92;96.61
13690;BME280;6917;52.194;9.894;2023-04-24T03:43:50;98907.00;;;9.90;96.41
13690;BME280;6917;52.194;9.894;2023-04-24T03:46:18;98912.91;;;9.92;96.02
13690;BME280;6917;52.194;9.894;2023-04-24T03:48:46;98912.72;;;9.84;95.19
13690;BME280;6917;52.194;9.894;2023-04-24T03:51:11;98909.66;;;9.86;95.75
13690;BME280;6917;52.194;9.894;2023-04-24T03:53:37;98912.13;;;9.91;96.03
13690;BME280;6917;52.194;9.894;2023-04-24T03:56:11;98915.19;;;9.90;96.23
13690;BME280;6917;52.194;9.894;2023-04-24T03:58:37;98921.44;;;9.90;96.04
13690;BME280;6917;52.194;9.894;2023-04-24T04:01:02;98909.88;;;9.81;96.01
13690;BME280;6917;52.194;9.894;2023-04-24T04:03:31;98914.19;;;9.82;96.25
13690;BME280;6917;52.194;9.894;2023-04-24T04:05:56;98916.47;;;9.68;96.85
13690;BME280;6917;52.194;9.894;2023-04-24T04:08:21;98910.56;;;9.66;97.37
13690;BME280;6917;52.194;9.894;2023-04-24T04:10:47;98909.09;;;9.68;97.05
13690;BME280;6917;52.194;9.894;2023-04-24T04:13:14;98915.13;;;9.74;97.19
13690;BME280;6917;52.194;9.894;2023-04-24T04:15:43;98913.97;;;9.75;96.86
13690;BME280;6917;52.194;9.894;2023-04-24T04:18:09;98920.47;;;9.70;97.14
13690;BME280;6917;52.194;9.894;2023-04-24T04:20:34;98916.59;;;9.71;96.99
13690;BME280;6917;52.194;9.894;2023-04-24T04:23:00;98908.75;;;9.70;97.73
13690;BME280;6917;52.194;9.894;2023-04-24T04:25:25;98915.00;;;9.70;97.97
13690;BME280;6917;52.194;9.894;2023-04-24T04:27:50;98905.56;;;9.68;98.30
13690;BME280;6917;52.194;9.894;2023-04-24T04:30:17;98899.56;;;9.62;98.55
13690;BME280;6917;52.194;9.894;2023-04-24T04:32:43;98910.47;;;9.62;98.95
13690;BME280;6917;52.194;9.894;2023-04-24T04:35:08;98916.25;;;9.73;99.41
13690;BME280;6917;52.194;9.894;2023-04-24T04:37:34;98925.09;;;9.82;98.64
13690;BME280;6917;52.194;9.894;2023-04-24T04:40:03;98921.78;;;9.89;98.38
13690;BME280;6917;52.194;9.894;2023-04-24T04:42:32;98930.53;;;9.94;98.34
13690;BME280;6917;52.194;9.894;2023-04-24T04:45:02;98927.09;;;9.97;99.10
13690;BME280;6917;52.194;9.894;2023-04-24T04:47:28;98927.22;;;10.01;98.89
13690;BME280;6917;52.194;9.894;2023-04-24T04:49:56;98936.06;;;10.10;98.41
13690;BME280;6917;52.194;9.894;2023-04-24T04:52:21;98931.63;;;10.18;98.05
13690;BME280;6917;52.194;9.894;2023-04-24T04:54:50;98928.66;;;10.10;98.78
13690;BME280;6917;52.194;9.894;2023-04-24T04:57:16;98930.47;;;10.19;98.72
13690;BME280;6917;52.194;9.894;2023-04-24T04:59:41;98931.75;;;10.21;98.18
13690;BME280;6917;52.194;9.894;2023-04-24T05:02:07;98929.56;;;10.27;98.22
13690;BME280;6917;52.194;9.894;2023-04-24T05:04:32;98938.31;;;10.32;97.72
13690;BME280;6917;52.194;9.894;2023-04-24T05:06:57;98939.19;;;10.36;97.71
13690;BME280;6917;52.194;9.894;2023-04-24T05:09:23;98930.78;;;10.41;97.66
13690;BME280;6917;52.194;9.894;2023-04-24T05:11:52;98932.47;;;10.46;97.46
13690;BME280;6917;52.194;9.894;2023-04-24T05:14:17;98939.16;;;10.49;97.74
13690;BME280;6917;52.194;9.894;2023-04-24T05:16:44;98941.53;;;10.50;97.71
13690;BME280;6917;52.194;9.894;2023-04-24T05:19:09;98948.59;;;10.51;97.88
13690;BME280;6917;52.194;9.894;2023-04-24T05:21:35;98933.09;;;10.55;97.71
13690;BME280;6917;52.194;9.894;2023-04-24T05:24:01;98944.13;;;10.59;97.45
13690;BME280;6917;52.194;9.894;2023-04-24T05:26:26;98946.50;;;10.60;98.02
13690;BME280;6917;52.194;9.894;2023-04-24T05:28:54;98943.44;;;10.62;97.83
13690;BME280;6917;52.194;9.894;2023-04-24T05:31:22;98946.25;;;10.65;97.73
13690;BME280;6917;52.194;9.894;2023-04-24T05:33:48;98945.38;;;10.61;98.58
13690;BME280;6917;52.194;9.894;2023-04-24T05:36:13;98948.63;;;10.67;98.14
13690;BME280;6917;52.194;9.894;2023-04-24T05:38:38;98955.00;;;10.71;98.81
13690;BME280;6917;52.194;9.894;2023-04-24T05:41:09;98948.28;;;10.68;99.11
13690;BME280;6917;52.194;9.894;2023-04-24T05:43:35;98954.31;;;10.74;98.48
13690;BME280;6917;52.194;9.894;2023-04-24T05:46:00;98941.09;;;10.76;98.23
13690;BME280;6917;52.194;9.894;2023-04-24T05:48:25;98944.16;;;10.75;97.81
13690;BME280;6917;52.194;9.894;2023-04-24T05:50:51;98953.25;;;10.79;98.33
13690;BME280;6917;52.194;9.894;2023-04-24T05:53:18;98956.06;;;10.82;97.54
13690;BME280;6917;52.194;9.894;2023-04-24T05:55:43;98947.28;;;10.89;98.25
13690;BME280;6917;52.194;9.894;2023-04-24T05:58:08;98952.84;;;10.92;97.62
13690;BME280;6917;52.194;9.894;2023-04-24T06:00:34;98948.94;;;10.93;97.96
13690;BME280;6917;52.194;9.894;2023-04-24T06:03:02;98949.41;;;10.95;98.05
13690;BME280;6917;52.194;9.894;2023-04-24T06:05:29;98958.16;;;11.01;98.13
13690;BME280;6917;52.194;9.894;2023-04-24T06:07:55;98950.03;;;11.05;98.39
13690;BME280;6917;52.194;9.894;2023-04-24T06:10:22;98957.09;;;11.06;98.44
13690;BME280;6917;52.194;9.894;2023-04-24T06:12:48;98957.44;;;11.04;98.97
13690;BME280;6917;52.194;9.894;2023-04-24T06:15:13;98957.44;;;11.04;99.05
13690;BME280;6917;52.194;9.894;2023-04-24T06:17:39;98962.13;;;11.03;99.16
13690;BME280;6917;52.194;9.894;2023-04-24T06:20:05;98962.03;;;11.00;99.12
13690;BME280;6917;52.194;9.894;2023-04-24T06:22:31;98983.88;;;11.00;100.00
13690;BME280;6917;52.194;9.894;2023-04-24T06:24:59;98984.31;;;10.58;100.00
13690;BME280;6917;52.194;9.894;2023-04-24T06:27:25;98980.75;;;10.18;100.00
13690;BME280;6917;52.194;9.894;2023-04-24T06:29:50;98988.06;;;9.89;100.00
13690;BME280;6917;52.194;9.894;2023-04-24T06:32:22;98978.41;;;9.79;100.00
13690;BME280;6917;52.194;9.894;2023-04-24T06:34:48;98983.75;;;9.76;100.00
13690;BME280;6917;52.194;9.894;2023-04-24T06:37:14;98981.81;;;9.64;100.00
13690;BME280;6917;52.194;9.894;2023-04-24T06:39:39;98981.81;;;9.64;100.00
13690;BME280;6917;52.194;9.894;2023-04-24T06:42:04;98992.59;;;9.61;100.00
13690;BME280;6917;52.194;9.894;2023-04-24T06:44:30;98994.44;;;9.57;100.00
13690;BME280;6917;52.194;9.894;2023-04-24T06:46:55;98991.47;;;9.62;100.00
13690;BME280;6917;52.194;9.894;2023-04-24T06:49:21;98991.47;;;9.62;100.00
13690;BME280;6917;52.194;9.894;2023-04-24T06:51:51;98990.78;;;9.65;100.00
13690;BME280;6917;52.194;9.894;2023-04-24T06:54:17;99002.59;;;9.69;100.00
13690;BME280;6917;52.194;9.894;2023-04-24T06:56:42;99003.41;;;9.69;100.00
13690;BME280;6917;52.194;9.894;2023-04-24T06:59:07;98996.25;;;9.77;100.00
13690;BME280;6917;52.194;9.894;2023-04-24T07:01:33;98994.56;;;9.84;100.00
13690;BME280;6917;52.194;9.894;2023-04-24T07:03:58;98992.38;;;9.90;100.00
13690;BME280;6917;52.194;9.894;2023-04-24T07:06:30;98983.94;;;9.95;100.00
13690;BME280;6917;52.194;9.894;2023-04-24T07:08:56;98990.09;;;10.04;100.00
13690;BME280;6917;52.194;9.894;2023-04-24T07:11:25;98986.66;;;10.07;100.00
13690;BME280;6917;52.194;9.894;2023-04-24T07:14:00;98992.22;;;10.11;100.00
13690;BME280;6917;52.194;9.894;2023-04-24T07:16:25;98978.34;;;10.16;98.32
13690;BME280;6917;52.194;9.894;2023-04-24T07:18:53;98987.13;;;10.22;97.55
13690;BME280;6917;52.194;9.894;2023-04-24T07:21:18;98992.81;;;10.29;98.22
13690;BME280;6917;52.194;9.894;2023-04-24T07:23:44;98991.50;;;10.38;98.14
13690;BME280;6917;52.194;9.894;2023-04-24T07:26:09;98997.72;;;10.51;97.42
13690;BME280;6917;52.194;9.894;2023-04-24T07:28:45;99010.03;;;10.57;96.09
13690;BME280;6917;52.194;9.894;2023-04-24T07:31:11;99015.91;;;10.71;95.47
13690;BME280;6917;52.194;9.894;2023-04-24T07:33:44;99006.66;;;10.76;93.20
13690;BME280;6917;52.194;9.894;2023-04-24T07:36:15;99012.19;;;10.80;91.96
13690;BME280;6917;52.194;9.894;2023-04-24T07:38:47;99009.72;;;10.75;89.90
13690;BME280;6917;52.194;9.894;2023-04-24T07:41:32;98999.38;;;10.68;88.42
13690;BME280;6917;52.194;9.894;2023-04-24T07:43:58;99004.63;;;10.73;88.01
13690;BME280;6917;52.194;9.894;2023-04-24T07:46:23;98991.94;;;10.81;85.51
13690;BME280;6917;52.194;9.894;2023-04-24T07:49:07;98998.13;;;10.93;83.67
13690;BME280;6917;52.194;9.894;2023-04-24T07:51:36;98986.63;;;11.00;81.56
13690;BME280;6917;52.194;9.894;2023-04-24T07:54:04;98989.69;;;10.98;80.51
13690;BME280;6917;52.194;9.894;2023-04-24T07:56:45;99001.34;;;11.11;79.68
13690;BME280;6917;52.194;9.894;2023-04-24T07:59:22;98996.00;;;11.15;79.85
13690;BME280;6917;52.194;9.894;2023-04-24T08:01:47;98994.38;;;11.14;78.32
13690;BME280;6917;52.194;9.894;2023-04-24T08:04:16;98999.31;;;11.08;78.55
13690;BME280;6917;52.194;9.894;2023-04-24T08:06:43;99002.50;;;11.10;79.65
13690;BME280;6917;52.194;9.894;2023-04-24T08:09:14;99007.06;;;11.06;78.63
13690;BME280;6917;52.194;9.894;2023-04-24T08:11:40;99012.63;;;11.10;78.19
13690;BME280;6917;52.194;9.894;2023-04-24T08:14:05;99005.56;;;11.09;76.60
13690;BME280;6917;52.194;9.894;2023-04-24T08:16:32;99022.72;;;11.21;76.38
13690;BME280;6917;52.194;9.894;2023-04-24T08:19:08;99007.97;;;11.26;75.24
13690;BME280;6917;52.194;9.894;2023-04-24T08:21:36;99027.75;;;11.51;76.67
13690;BME280;6917;52.194;9.894;2023-04-24T08:24:07;99026.69;;;11.71;75.48
13690;BME280;6917;52.194;9.894;2023-04-24T08:26:36;99019.03;;;11.77;75.85
13690;BME280;6917;52.194;9.894;2023-04-24T08:29:04;99017.19;;;11.81;75.21
13690;BME280;6917;52.194;9.894;2023-04-24T08:31:31;99004.13;;;11.90;73.98
13690;BME280;6917;52.194;9.894;2023-04-24T08:33:57;99007.72;;;11.78;73.44
13690;BME280;6917;52.194;9.894;2023-04-24T08:36:24;99012.53;;;11.81;74.36
13690;BME280;6917;52.194;9.894;2023-04-24T08:38:53;99029.09;;;12.04;75.38
13690;BME280;6917;52.194;9.894;2023-04-24T08:41:33;99004.31;;;11.81;73.23
13690;BME280;6917;52.194;9.894;2023-04-24T08:44:02;99004.06;;;11.86;74.10
13690;BME280;6917;52.194;9.894;2023-04-24T08:46:45;99011.53;;;11.74;74.13
13690;BME280;6917;52.194;9.894;2023-04-24T08:49:39;99017.63;;;11.83;75.22
13690;BME280;6917;52.194;9.894;2023-04-24T08:52:10;99016.03;;;11.98;74.39
13690;BME280;6917;52.194;9.894;2023-04-24T08:54:49;99003.94;;;11.99;73.41
13690;BME280;6917;52.194;9.894;2023-04-24T09:03:17;98997.69;;;11.51;70.36
13690;BME280;6917;52.194;9.894;2023-04-24T09:05:46;99019.03;;;11.61;70.57
13690;BME280;6917;52.194;9.894;2023-04-24T09:08:13;98998.03;;;11.65;70.20
13690;BME280;6917;52.194;9.894;2023-04-24T09:10:40;99015.44;;;11.88;71.00
13690;BME280;6917;52.194;9.894;2023-04-24T09:13:05;99034.63;;;12.24;72.80
13690;BME280;6917;52.194;9.894;2023-04-24T09:15:34;99035.97;;;12.14;74.40
13690;BME280;6917;52.194;9.894;2023-04-24T09:18:00;99019.75;;;11.89;74.63
13690;BME280;6917;52.194;9.894;2023-04-24T09:20:25;99020.72;;;11.81;72.23
13690;BME280;6917;52.194;9.894;2023-04-24T09:22:54;99018.69;;;11.78;71.50
13690;BME280;6917;52.194;9.894;2023-04-24T09:25:20;99017.47;;;11.60;70.64
13690;BME280;6917;52.194;9.894;2023-04-24T09:27:46;99014.81;;;11.48;70.38
13690;BME280;6917;52.194;9.894;2023-04-24T09:30:12;99026.88;;;11.47;71.28
13690;BME280;6917;52.194;9.894;2023-04-24T09:32:38;99032.50;;;11.38;71.27
13690;BME280;6917;52.194;9.894;2023-04-24T09:35:09;99032.00;;;11.32;71.02
13690;BME280;6917;52.194;9.894;2023-04-24T09:37:42;99030.66;;;11.42;71.27
13690;BME280;6917;52.194;9.894;2023-04-24T09:42:37;99029.28;;;11.80;70.90
13690;BME280;6917;52.194;9.894;2023-04-24T09:45:03;99029.28;;;11.80;69.57
13690;BME280;6917;52.194;9.894;2023-04-24T09:47:36;99029.81;;;11.85;68.61
13690;BME280;6917;52.194;9.894;2023-04-24T09:50:12;99029.56;;;11.90;67.85
13690;BME280;6917;52.194;9.894;2023-04-24T09:52:46;99026.03;;;11.90;67.89
13690;BME280;6917;52.194;9.894;2023-04-24T09:55:15;99030.34;;;11.75;67.23
13690;BME280;6917;52.194;9.894;2023-04-24T09:58:07;99019.75;;;11.74;68.38
13690;BME280;6917;52.194;9.894;2023-04-24T10:00:33;99031.56;;;11.78;69.02
13690;BME280;6917;52.194;9.894;2023-04-24T10:02:59;99022.38;;;11.70;67.83
13690;BME280;6917;52.194;9.894;2023-04-24T10:05:28;99034.75;;;11.64;68.40
13690;BME280;6917;52.194;9.894;2023-04-24T10:08:00;99024.06;;;11.59;68.26
13690;BME280;6917;52.194;9.894;2023-04-24T10:10:26;99021.94;;;11.52;68.37
13690;BME280;6917;52.194;9.894;2023-04-24T10:12:52;99033.50;;;11.46;68.89
13690;BME280;6917;52.194;9.894;2023-04-24T10:15:18;99022.00;;;11.40;68.48
13690;BME280;6917;52.194;9.894;2023-04-24T10:17:48;99031.19;;;11.32;68.59
13690;BME280;6917;52.194;9.894;2023-04-24T10:20:18;99024.28;;;11.22;69.65
13690;BME280;6917;52.194;9.894;2023-04-24T10:22:45;99030.63;;;11.26;70.26
13690;BME280;6917;52.194;9.894;2023-04-24T10:25:16;99035.31;;;11.26;70.44
13690;BME280;6917;52.194;9.894;2023-04-24T10:27:41;99036.66;;;11.32;70.76
13690;BME280;6917;52.194;9.894;2023-04-24T10:30:07;99043.00;;;11.36;70.83
13690;BME280;6917;52.194;9.894;2023-04-24T10:32:33;99040.63;;;11.35;70.33
13690;BME280;6917;52.194;9.894;2023-04-24T10:34:58;99040.38;;;11.40;70.63
13690;BME280;6917;52.194;9.894;2023-04-24T10:37:24;99036.84;;;11.39;70.74
13690;BME280;6917;52.194;9.894;2023-04-24T10:39:51;99041.16;;;11.40;70.34
13690;BME280;6917;52.194;9.894;2023-04-24T10:42:19;99048.78;;;11.47;71.29
13690;BME280;6917;52.194;9.894;2023-04-24T10:44:47;99038.72;;;11.67;70.71
13690;BME280;6917;52.194;9.894;2023-04-24T10:47:14;99034.97;;;11.87;70.71
13690;BME280;6917;52.194;9.894;2023-04-24T10:49:39;99042.59;;;12.13;70.45
13690;BME280;6917;52.194;9.894;2023-04-24T10:52:05;99020.31;;;12.14;68.46
13690;BME280;6917;52.194;9.894;2023-04-24T10:59:43;99035.56;;;11.80;69.56
13690;BME280;6917;52.194;9.894;2023-04-24T11:02:09;99028.03;;;11.61;69.29
13690;BME280;6917;52.194;9.894;2023-04-24T11:04:34;99048.41;;;11.48;69.96
13690;BME280;6917;52.194;9.894;2023-04-24T11:07:02;99049.72;;;11.39;71.51
13690;BME280;6917;52.194;9.894;2023-04-24T11:09:30;99067.53;;;11.32;72.75
13690;BME280;6917;52.194;9.894;2023-04-24T11:12:22;99060.06;;;11.45;72.50
13690;BME280;6917;52.194;9.894;2023-04-24T11:14:59;99053.94;;;11.80;71.47
13690;BME280;6917;52.194;9.894;2023-04-24T11:17:33;99033.53;;;11.93;69.81
13690;BME280;6917;52.194;9.894;2023-04-24T11:20:04;99032.16;;;12.18;69.73
13690;BME280;6917;52.194;9.894;2023-04-24T11:22:33;99023.94;;;12.54;68.75
13690;BME280;6917;52.194;9.894;2023-04-24T11:25:00;99013.13;;;12.61;68.15
13690;BME280;6917;52.194;9.894;2023-04-24T11:27:31;99006.56;;;12.65;68.78
13690;BME280;6917;52.194;9.894;2023-04-24T11:32:42;99010.47;;;12.45;68.34
13690;BME280;6917;52.194;9.894;2023-04-24T11:35:18;99025.00;;;12.30;68.24
13690;BME280;6917;52.194;9.894;2023-04-24T11:37:45;99019.03;;;12.08;67.96
13690;BME280;6917;52.194;9.894;2023-04-24T11:40:13;99038.66;;;11.95;69.13
13690;BME280;6917;52.194;9.894;2023-04-24T11:42:42;99045.19;;;11.90;70.38
13690;BME280;6917;52.194;9.894;2023-04-24T11:45:12;99068.47;;;12.00;72.15
13690;BME280;6917;52.194;9.894;2023-04-24T11:47:38;99059.88;;;11.70;72.99
13690;BME280;6917;52.194;9.894;2023-04-24T11:50:05;99079.75;;;11.67;74.11
13690;BME280;6917;52.194;9.894;2023-04-24T11:52:31;99080.84;;;11.94;74.96
13690;BME280;6917;52.194;9.894;2023-04-24T11:54:57;99066.44;;;12.12;73.57
13690;BME280;6917;52.194;9.894;2023-04-24T11:57:24;99076.16;;;12.61;72.96
13690;BME280;6917;52.194;9.894;2023-04-24T11:59:51;99056.41;;;12.90;71.74
13690;BME280;6917;52.194;9.894;2023-04-24T12:02:23;99038.38;;;13.08;69.78
13690;BME280;6917;52.194;9.894;2023-04-24T12:04:49;99048.19;;;12.90;69.37
13690;BME280;6917;52.194;9.894;2023-04-24T12:07:15;99052.13;;;12.54;69.38
13690;BME280;6917;52.194;9.894;2023-04-24T12:09:56;99055.34;;;12.40;71.08
13690;BME280;6917;52.194;9.894;2023-04-24T12:12:25;99046.06;;;12.45;70.83
13690;BME280;6917;52.194;9.894;2023-04-24T12:14:57;99048.97;;;12.17;70.77
13690;BME280;6917;52.194;9.894;2023-04-24T12:17:26;99057.44;;;11.96;71.50
13690;BME280;6917;52.194;9.894;2023-04-24T12:19:51;99075.03;;;11.79;72.37
13690;BME280;6917;52.194;9.894;2023-04-24T12:22:17;99104.00;;;11.52;74.18
13690;BME280;6917;52.194;9.894;2023-04-24T12:25:01;99113.00;;;10.57;75.68
13690;BME280;6917;52.194;9.894;2023-04-24T12:27:30;99126.78;;;10.24;78.47
13690;BME280;6917;52.194;9.894;2023-04-24T12:29:56;99146.16;;;9.86;81.64
13690;BME280;6917;52.194;9.894;2023-04-24T12:32:22;99155.63;;;9.55;85.09
13690;BME280;6917;52.194;9.894;2023-04-24T12:34:49;99144.53;;;9.39;88.35
13690;BME280;6917;52.194;9.894;2023-04-24T12:37:16;99130.78;;;9.36;90.22
13690;BME280;6917;52.194;9.894;2023-04-24T12:42:29;99139.22;;;9.88;89.80
13690;BME280;6917;52.194;9.894;2023-04-24T12:45:00;99123.13;;;10.56;85.92
13690;BME280;6917;52.194;9.894;2023-04-24T12:47:29;99109.31;;;11.17;82.89
13690;BME280;6917;52.194;9.894;2023-04-24T12:49:54;99100.34;;;11.32;79.49
13690;BME280;6917;52.194;9.894;2023-04-24T12:52:21;99104.41;;;11.11;77.91
13690;BME280;6917;52.194;9.894;2023-04-24T12:54:47;99106.75;;;10.96;78.06
13690;BME280;6917;52.194;9.894;2023-04-24T12:57:12;99123.88;;;10.81;78.04
13690;BME280;6917;52.194;9.894;2023-04-24T12:59:37;99122.28;;;10.80;79.17
13690;BME280;6917;52.194;9.894;2023-04-24T13:02:04;99125.09;;;10.84;78.24
13690;BME280;6917;52.194;9.894;2023-04-24T13:04:30;99122.19;;;10.64;78.12
13690;BME280;6917;52.194;9.894;2023-04-24T13:06:55;99132.56;;;10.47;79.22
13690;BME280;6917;52.194;9.894;2023-04-24T13:09:21;99146.56;;;10.45;79.98
13690;BME280;6917;52.194;9.894;2023-04-24T13:11:46;99159.09;;;10.34;80.32
13690;BME280;6917;52.194;9.894;2023-04-24T13:14:12;99148.81;;;10.06;81.10
13690;BME280;6917;52.194;9.894;2023-04-24T13:16:37;99157.44;;;10.08;81.65
13690;BME280;6917;52.194;9.894;2023-04-24T13:19:02;99166.66;;;10.16;82.47
13690;BME280;6917;52.194;9.894;2023-04-24T13:21:29;99172.47;;;10.14;82.88
13690;BME280;6917;52.194;9.894;2023-04-24T13:23:55;99182.69;;;10.05;83.04
13690;BME280;6917;52.194;9.894;2023-04-24T13:26:21;99161.50;;;9.90;82.39
13690;BME280;6917;52.194;9.894;2023-04-24T13:28:46;99168.97;;;9.81;82.12